PWSweather.com
Personal Weather Stations
Station Observations

ChardChardGB

Lat: 50.877408, Lon: -2.94964741

Elevation: 341

Station Type: WS3083

http://www.merriott-astro.co.uk/weather/index.htm

Latest ConditionsUpdated 11:20:13 PM GMT Wednesday, Sep 19, 2018
Currently Today's Max Today's Min Today's Average
Temperature 58.5°F14.7°C 71.4°F21.9°C 58.5°F14.7°C 63.6°F17.6°C
Dew Point 57.0°F13.9°C 60.2°F15.7°C 55.0°F12.8°C 58.1°F14.5°C
Winds 3.5 mph SW5.6 kmh SW 16.2 mph -26.1 kmh - - 8.4 mph 13.5 kmh
Wind Gusts 5.4 mph8.7 kmh 22.8 mph36.7 kmh - -
Humidity 95% 95% 60% 83%
Pressure 29.54 in1000.3 mb 29.57 in1001.4 mb 29.44 in997.0 mb -
Precipitation - 0.11 in2.8 mm - -
Hour Temp Dew Point Humidity Winds Wind Gusts Pressure Precip Precip Rate Daily Precip Total
11:20 PM 58.5°F14.7°C 57.0°F13.9°C 95% 3.5 mph SW5.6 kmh SW 5.4 mph8.7 kmh 29.54 in1000.3 mb 0.01 in0.3 mm 0.00 in0.0 mm 0.11 in2.8 mm
11:10 PM 58.5°F14.7°C 57.0°F13.9°C 95% 3.1 mph SW5.0 kmh SW 6.9 mph11.1 kmh 29.54 in1000.3 mb 0.01 in0.3 mm 0.00 in0.0 mm 0.09 in2.3 mm
11:00 PM 58.5°F14.7°C 57.0°F13.9°C 95% 3.9 mph SW6.3 kmh SW 6.9 mph11.1 kmh 29.53 in1000.0 mb 0.01 in0.3 mm 0.00 in0.0 mm 0.09 in2.3 mm
10:50 PM 58.5°F14.7°C 56.8°F13.8°C 94% 5.3 mph S8.5 kmh S 7.6 mph12.2 kmh 29.54 in1000.3 mb 0.01 in0.3 mm 0.00 in0.0 mm 0.09 in2.3 mm
10:40 PM 58.6°F14.8°C 56.9°F13.8°C 94% 5.0 mph SW8.0 kmh SW 7.6 mph12.2 kmh 29.54 in1000.3 mb 0.01 in0.3 mm 0.00 in0.0 mm 0.09 in2.3 mm
10:30 PM 58.8°F14.9°C 57.1°F13.9°C 94% 4.6 mph SSW7.4 kmh SSW 6.0 mph9.7 kmh 29.55 in1000.7 mb 0.02 in0.5 mm 0.00 in0.0 mm 0.09 in2.3 mm
10:20 PM 59.0°F15.0°C 57.0°F13.9°C 93% 4.4 mph SSW7.1 kmh SSW 6.9 mph11.1 kmh 29.56 in1001.0 mb 0.02 in0.5 mm 0.06 in1.5 mm 0.09 in2.3 mm
10:10 PM 59.2°F15.1°C 56.9°F13.8°C 92% 4.5 mph SW7.2 kmh SW 4.5 mph7.2 kmh 29.55 in1000.7 mb 0.01 in0.3 mm 0.00 in0.0 mm 0.08 in2.0 mm
10:00 PM 59.2°F15.1°C 56.9°F13.8°C 92% 3.9 mph SW6.3 kmh SW 4.5 mph7.2 kmh 29.56 in1001.0 mb 0.01 in0.3 mm 0.00 in0.0 mm 0.08 in2.0 mm
09:50 PM 59.2°F15.1°C 56.6°F13.7°C 91% 3.8 mph SW6.1 kmh SW 6.0 mph9.7 kmh 29.56 in1001.0 mb 0.01 in0.3 mm 0.00 in0.0 mm 0.08 in2.0 mm
09:40 PM 59.2°F15.1°C 56.6°F13.7°C 91% 4.0 mph SSW6.4 kmh SSW 6.9 mph11.1 kmh 29.56 in1001.0 mb 0.01 in0.3 mm 0.06 in1.5 mm 0.08 in2.0 mm
09:30 PM 59.2°F15.1°C 56.3°F13.5°C 90% 5.4 mph SSW8.7 kmh SSW 7.6 mph12.2 kmh 29.57 in1001.4 mb 0.00 in0.0 mm 0.00 in0.0 mm 0.07 in1.8 mm
09:20 PM 59.2°F15.1°C 56.3°F13.5°C 90% 3.7 mph SW6.0 kmh SW 6.0 mph9.7 kmh 29.56 in1001.0 mb 0.00 in0.0 mm 0.00 in0.0 mm 0.07 in1.8 mm
09:10 PM 59.4°F15.2°C 56.1°F13.4°C 89% 4.6 mph SSW7.4 kmh SSW 6.9 mph11.1 kmh 29.57 in1001.4 mb 0.00 in0.0 mm 0.00 in0.0 mm 0.07 in1.8 mm
09:00 PM 59.4°F15.2°C 55.8°F13.2°C 88% 3.9 mph S6.3 kmh S 6.0 mph9.7 kmh 29.57 in1001.4 mb 0.00 in0.0 mm 0.00 in0.0 mm 0.07 in1.8 mm
08:50 PM 59.5°F15.3°C 56.0°F13.3°C 88% 3.5 mph SSW5.6 kmh SSW 4.5 mph7.2 kmh 29.56 in1001.0 mb 0.00 in0.0 mm 0.00 in0.0 mm 0.07 in1.8 mm
08:40 PM 59.4°F15.2°C 55.8°F13.2°C 88% 4.5 mph SSW7.2 kmh SSW 6.0 mph9.7 kmh 29.57 in1001.4 mb 0.00 in0.0 mm 0.00 in0.0 mm 0.07 in1.8 mm
08:30 PM 59.4°F15.2°C 56.1°F13.4°C 89% 3.8 mph SSW6.1 kmh SSW 6.0 mph9.7 kmh 29.56 in1001.0 mb 0.00 in0.0 mm 0.00 in0.0 mm 0.07 in1.8 mm
08:20 PM 59.4°F15.2°C 56.1°F13.4°C 89% 4.3 mph SW6.9 kmh SW 6.0 mph9.7 kmh 29.56 in1001.0 mb 0.00 in0.0 mm 0.00 in0.0 mm 0.07 in1.8 mm
08:10 PM 59.2°F15.1°C 55.6°F13.1°C 88% 3.8 mph SW6.1 kmh SW 5.4 mph8.7 kmh 29.56 in1001.0 mb 0.00 in0.0 mm 0.00 in0.0 mm 0.07 in1.8 mm
08:00 PM 59.2°F15.1°C 55.3°F12.9°C 87% 5.4 mph SW8.7 kmh SW 8.3 mph13.4 kmh 29.56 in1001.0 mb 0.00 in0.0 mm 0.00 in0.0 mm 0.07 in1.8 mm
07:50 PM 59.2°F15.1°C 55.3°F12.9°C 87% 5.0 mph SW8.0 kmh SW 7.6 mph12.2 kmh 29.56 in1001.0 mb 0.00 in0.0 mm 0.00 in0.0 mm 0.07 in1.8 mm
07:40 PM 59.2°F15.1°C 55.0°F12.8°C 86% 5.6 mph SSW9.0 kmh SSW 9.2 mph14.8 kmh 29.56 in1001.0 mb 0.00 in0.0 mm 0.00 in0.0 mm 0.07 in1.8 mm
07:30 PM 59.2°F15.1°C 55.0°F12.8°C 86% 4.5 mph SSW7.2 kmh SSW 8.3 mph13.4 kmh 29.56 in1001.0 mb 0.00 in0.0 mm 0.00 in0.0 mm 0.07 in1.8 mm
07:20 PM 59.2°F15.1°C 55.0°F12.8°C 86% 6.4 mph WSW10.3 kmh WSW 11.4 mph18.3 kmh 29.56 in1001.0 mb 0.00 in0.0 mm 0.00 in0.0 mm 0.07 in1.8 mm
07:10 PM 59.2°F15.1°C 55.3°F12.9°C 87% 5.7 mph SW9.2 kmh SW 9.2 mph14.8 kmh 29.55 in1000.7 mb 0.00 in0.0 mm 0.00 in0.0 mm 0.07 in1.8 mm
07:00 PM 59.2°F15.1°C 55.6°F13.1°C 88% 6.0 mph SW9.7 kmh SW 9.2 mph14.8 kmh 29.56 in1001.0 mb 0.00 in0.0 mm 0.00 in0.0 mm 0.07 in1.8 mm
06:50 PM 59.2°F15.1°C 55.6°F13.1°C 88% 3.9 mph SW6.3 kmh SW 6.9 mph11.1 kmh 29.56 in1001.0 mb 0.00 in0.0 mm 0.00 in0.0 mm 0.07 in1.8 mm
06:40 PM 59.2°F15.1°C 55.6°F13.1°C 88% 4.7 mph SW7.6 kmh SW 6.0 mph9.7 kmh 29.55 in1000.7 mb 0.00 in0.0 mm 0.00 in0.0 mm 0.07 in1.8 mm
06:30 PM 59.2°F15.1°C 55.6°F13.1°C 88% 5.8 mph WNW9.3 kmh WNW 7.6 mph12.2 kmh 29.55 in1000.7 mb 0.01 in0.3 mm 0.00 in0.0 mm 0.07 in1.8 mm
06:20 PM 59.4°F15.2°C 55.8°F13.2°C 88% 7.4 mph WSW11.9 kmh WSW 11.4 mph18.3 kmh 29.56 in1001.0 mb 0.06 in1.5 mm 0.00 in0.0 mm 0.07 in1.8 mm
06:10 PM 59.5°F15.3°C 56.0°F13.3°C 88% 6.0 mph WSW9.7 kmh WSW 10.7 mph17.2 kmh 29.56 in1001.0 mb 0.07 in1.8 mm 0.00 in0.0 mm 0.07 in1.8 mm
06:00 PM 59.9°F15.5°C 56.0°F13.3°C 87% 6.0 mph W9.7 kmh W 8.3 mph13.4 kmh 29.55 in1000.7 mb 0.07 in1.8 mm 0.00 in0.0 mm 0.07 in1.8 mm
05:50 PM 60.4°F15.8°C 56.2°F13.4°C 86% 4.6 mph NW7.4 kmh NW 6.9 mph11.1 kmh 29.55 in1000.7 mb 0.07 in1.8 mm 0.00 in0.0 mm 0.07 in1.8 mm
05:40 PM 61.2°F16.2°C 56.6°F13.7°C 85% 5.6 mph NW9.0 kmh NW 7.6 mph12.2 kmh 29.55 in1000.7 mb 0.07 in1.8 mm 0.12 in3.0 mm 0.07 in1.8 mm
05:30 PM 62.8°F17.1°C 57.9°F14.4°C 84% 5.5 mph WNW8.9 kmh WNW 9.2 mph14.8 kmh 29.55 in1000.7 mb 0.05 in1.3 mm 0.24 in6.1 mm 0.05 in1.3 mm
05:20 PM 63.9°F17.7°C 56.9°F13.8°C 78% 5.3 mph WNW8.5 kmh WNW 8.3 mph13.4 kmh 29.54 in1000.3 mb 0.01 in0.3 mm 0.06 in1.5 mm 0.01 in0.3 mm
05:10 PM 65.3°F18.5°C 57.2°F14.0°C 75% 6.2 mph S10.0 kmh S 7.6 mph12.2 kmh 29.54 in1000.3 mb 0.00 in0.0 mm 0.00 in0.0 mm 0.00 in0.0 mm
05:00 PM 65.5°F18.6°C 57.0°F13.9°C 74% 7.0 mph WSW11.3 kmh WSW 10.7 mph17.2 kmh 29.53 in1000.0 mb 0.00 in0.0 mm 0.00 in0.0 mm 0.00 in0.0 mm
04:50 PM 65.7°F18.7°C 57.2°F14.0°C 74% 7.0 mph WSW11.3 kmh WSW 11.4 mph18.3 kmh 29.52 in999.7 mb 0.00 in0.0 mm 0.00 in0.0 mm 0.00 in0.0 mm
04:40 PM 65.8°F18.8°C 57.0°F13.9°C 73% 9.3 mph S15.0 kmh S 11.4 mph18.3 kmh 29.52 in999.7 mb 0.00 in0.0 mm 0.00 in0.0 mm 0.00 in0.0 mm
04:30 PM 66.4°F19.1°C 57.1°F13.9°C 72% 7.6 mph S12.2 kmh S 12.1 mph19.5 kmh 29.53 in1000.0 mb 0.00 in0.0 mm 0.00 in0.0 mm 0.00 in0.0 mm
04:20 PM 66.9°F19.4°C 57.6°F14.2°C 72% 8.4 mph S13.5 kmh S 14.5 mph23.3 kmh 29.52 in999.7 mb 0.00 in0.0 mm 0.00 in0.0 mm 0.00 in0.0 mm
04:10 PM 67.1°F19.5°C 57.8°F14.3°C 72% 7.2 mph S11.6 kmh S 12.1 mph19.5 kmh 29.52 in999.7 mb 0.00 in0.0 mm 0.00 in0.0 mm 0.00 in0.0 mm
04:00 PM 66.7°F19.3°C 57.4°F14.1°C 72% 7.8 mph SW12.6 kmh SW 12.1 mph19.5 kmh 29.52 in999.7 mb 0.00 in0.0 mm 0.00 in0.0 mm 0.00 in0.0 mm
03:50 PM 66.7°F19.3°C 57.4°F14.1°C 72% 10.7 mph SSE17.2 kmh SSE 13.6 mph21.9 kmh 29.52 in999.7 mb 0.00 in0.0 mm 0.00 in0.0 mm 0.00 in0.0 mm
03:40 PM 66.9°F19.4°C 57.2°F14.0°C 71% 8.7 mph SW14.0 kmh SW 14.5 mph23.3 kmh 29.51 in999.3 mb 0.00 in0.0 mm 0.00 in0.0 mm 0.00 in0.0 mm
03:30 PM 67.5°F19.7°C 57.4°F14.1°C 70% 8.6 mph SW13.8 kmh SW 12.1 mph19.5 kmh 29.51 in999.3 mb 0.00 in0.0 mm 0.00 in0.0 mm 0.00 in0.0 mm
03:20 PM 68.2°F20.1°C 58.0°F14.4°C 70% 9.1 mph SW14.6 kmh SW 16.8 mph27.0 kmh 29.51 in999.3 mb 0.00 in0.0 mm 0.00 in0.0 mm 0.00 in0.0 mm
03:10 PM 67.5°F19.7°C 58.1°F14.5°C 72% 10.4 mph SW16.7 kmh SW 16.8 mph27.0 kmh 29.50 in999.0 mb 0.00 in0.0 mm 0.00 in0.0 mm 0.00 in0.0 mm
03:00 PM 67.3°F19.6°C 58.0°F14.4°C 72% 12.6 mph SSW20.3 kmh SSW 16.8 mph27.0 kmh 29.50 in999.0 mb 0.00 in0.0 mm 0.00 in0.0 mm 0.00 in0.0 mm
02:50 PM 66.9°F19.4°C 58.4°F14.7°C 74% 12.3 mph SSW19.8 kmh SSW 19.7 mph31.7 kmh 29.50 in999.0 mb 0.00 in0.0 mm 0.00 in0.0 mm 0.00 in0.0 mm
02:40 PM 67.1°F19.5°C 58.6°F14.8°C 74% 11.0 mph SW17.7 kmh SW 19.7 mph31.7 kmh 29.51 in999.3 mb 0.00 in0.0 mm 0.00 in0.0 mm 0.00 in0.0 mm
02:30 PM 66.0°F18.9°C 59.0°F15.0°C 78% 9.8 mph SW15.8 kmh SW 13.6 mph21.9 kmh 29.50 in999.0 mb 0.00 in0.0 mm 0.00 in0.0 mm 0.00 in0.0 mm
02:20 PM 65.5°F18.6°C 58.8°F14.9°C 79% 9.3 mph SW15.0 kmh SW 13.0 mph20.9 kmh 29.51 in999.3 mb 0.00 in0.0 mm 0.00 in0.0 mm 0.00 in0.0 mm
02:10 PM 65.7°F18.7°C 58.3°F14.6°C 77% 10.1 mph WSW16.3 kmh WSW 15.9 mph25.6 kmh 29.50 in999.0 mb 0.00 in0.0 mm 0.00 in0.0 mm 0.00 in0.0 mm
02:00 PM 66.4°F19.1°C 57.5°F14.2°C 73% 12.1 mph S19.5 kmh S 17.4 mph28.0 kmh 29.50 in999.0 mb 0.00 in0.0 mm 0.00 in0.0 mm 0.00 in0.0 mm
01:50 PM 67.3°F19.6°C 57.6°F14.2°C 71% 9.0 mph SSW14.5 kmh SSW 18.3 mph29.5 kmh 29.50 in999.0 mb 0.00 in0.0 mm 0.00 in0.0 mm 0.00 in0.0 mm
01:40 PM 67.3°F19.6°C 57.6°F14.2°C 71% 13.3 mph SSW21.4 kmh SSW 17.4 mph28.0 kmh 29.50 in999.0 mb 0.00 in0.0 mm 0.00 in0.0 mm 0.00 in0.0 mm
01:30 PM 67.8°F19.9°C 58.1°F14.5°C 71% 15.1 mph SSW24.3 kmh SSW 21.3 mph34.3 kmh 29.49 in998.6 mb 0.00 in0.0 mm 0.00 in0.0 mm 0.00 in0.0 mm
01:20 PM 68.9°F20.5°C 57.1°F13.9°C 66% 14.4 mph SSW23.2 kmh SSW 19.7 mph31.7 kmh 29.50 in999.0 mb 0.00 in0.0 mm 0.00 in0.0 mm 0.00 in0.0 mm
01:10 PM 71.2°F21.8°C 58.0°F14.4°C 63% 9.4 mph WSW15.1 kmh WSW 13.0 mph20.9 kmh 29.50 in999.0 mb 0.00 in0.0 mm 0.00 in0.0 mm 0.00 in0.0 mm
01:00 PM 70.7°F21.5°C 57.5°F14.2°C 63% 9.4 mph WSW15.1 kmh WSW 15.9 mph25.6 kmh 29.49 in998.6 mb 0.00 in0.0 mm 0.00 in0.0 mm 0.00 in0.0 mm
12:50 PM 69.1°F20.6°C 56.4°F13.6°C 64% 10.1 mph SW16.3 kmh SW 14.5 mph23.3 kmh 29.49 in998.6 mb 0.00 in0.0 mm 0.00 in0.0 mm 0.00 in0.0 mm
12:40 PM 69.8°F21.0°C 56.2°F13.4°C 62% 10.0 mph SSW16.1 kmh SSW 16.8 mph27.0 kmh 29.50 in999.0 mb 0.00 in0.0 mm 0.00 in0.0 mm 0.00 in0.0 mm
12:30 PM 69.6°F20.9°C 55.6°F13.1°C 61% 12.2 mph SW19.6 kmh SW 15.9 mph25.6 kmh 29.49 in998.6 mb 0.00 in0.0 mm 0.00 in0.0 mm 0.00 in0.0 mm
12:20 PM 71.1°F21.7°C 56.5°F13.6°C 60% 10.4 mph SW16.7 kmh SW 13.0 mph20.9 kmh 29.48 in998.3 mb 0.00 in0.0 mm 0.00 in0.0 mm 0.00 in0.0 mm
12:10 PM 71.4°F21.9°C 56.8°F13.8°C 60% 16.2 mph SSW26.1 kmh SSW 22.8 mph36.7 kmh 29.49 in998.6 mb 0.00 in0.0 mm 0.00 in0.0 mm 0.00 in0.0 mm
12:00 PM 71.2°F21.8°C 57.1°F13.9°C 61% 12.7 mph SW20.4 kmh SW 18.3 mph29.5 kmh 29.48 in998.3 mb 0.00 in0.0 mm 0.00 in0.0 mm 0.00 in0.0 mm
11:50 AM 71.2°F21.8°C 57.6°F14.2°C 62% 15.1 mph SW24.3 kmh SW 19.7 mph31.7 kmh 29.47 in998.0 mb 0.00 in0.0 mm 0.00 in0.0 mm 0.00 in0.0 mm
11:40 AM 70.7°F21.5°C 58.4°F14.7°C 65% 11.3 mph W18.2 kmh W 19.7 mph31.7 kmh 29.48 in998.3 mb 0.00 in0.0 mm 0.00 in0.0 mm 0.00 in0.0 mm
11:30 AM 69.1°F20.6°C 59.3°F15.2°C 71% 13.0 mph SW20.9 kmh SW 20.6 mph33.2 kmh 29.48 in998.3 mb 0.00 in0.0 mm 0.00 in0.0 mm 0.00 in0.0 mm
11:20 AM 69.1°F20.6°C 58.5°F14.7°C 69% 10.9 mph SW17.5 kmh SW 20.6 mph33.2 kmh 29.47 in998.0 mb 0.00 in0.0 mm 0.00 in0.0 mm 0.00 in0.0 mm
11:10 AM 68.4°F20.2°C 57.4°F14.1°C 68% 15.3 mph SSW24.6 kmh SSW 19.7 mph31.7 kmh 29.47 in998.0 mb 0.00 in0.0 mm 0.00 in0.0 mm 0.00 in0.0 mm
11:00 AM 68.5°F20.3°C 57.6°F14.2°C 68% 12.4 mph SSW20.0 kmh SSW 19.7 mph31.7 kmh 29.47 in998.0 mb 0.00 in0.0 mm 0.00 in0.0 mm 0.00 in0.0 mm
10:50 AM 67.8°F19.9°C 58.5°F14.7°C 72% 12.8 mph SW20.6 kmh SW 16.8 mph27.0 kmh 29.48 in998.3 mb 0.00 in0.0 mm 0.00 in0.0 mm 0.00 in0.0 mm
10:40 AM 68.2°F20.1°C 59.2°F15.1°C 73% 11.7 mph SW18.8 kmh SW 18.3 mph29.5 kmh 29.47 in998.0 mb 0.00 in0.0 mm 0.00 in0.0 mm 0.00 in0.0 mm
10:30 AM 66.9°F19.4°C 58.8°F14.9°C 75% 14.5 mph SSW23.3 kmh SSW 22.1 mph35.6 kmh 29.47 in998.0 mb 0.00 in0.0 mm 0.00 in0.0 mm 0.00 in0.0 mm
10:20 AM 66.2°F19.0°C 58.1°F14.5°C 75% 13.5 mph S21.7 kmh S 16.8 mph27.0 kmh 29.47 in998.0 mb 0.00 in0.0 mm 0.00 in0.0 mm 0.00 in0.0 mm
10:10 AM 66.6°F19.2°C 58.0°F14.4°C 74% 14.3 mph S23.0 kmh S 19.7 mph31.7 kmh 29.46 in997.6 mb 0.00 in0.0 mm 0.00 in0.0 mm 0.00 in0.0 mm
10:00 AM 66.6°F19.2°C 58.4°F14.7°C 75% 15.0 mph WSW24.1 kmh WSW 22.1 mph35.6 kmh 29.46 in997.6 mb 0.00 in0.0 mm 0.00 in0.0 mm 0.00 in0.0 mm
09:50 AM 67.1°F19.5°C 58.6°F14.8°C 74% 13.1 mph SW21.1 kmh SW 16.8 mph27.0 kmh 29.47 in998.0 mb 0.00 in0.0 mm 0.00 in0.0 mm 0.00 in0.0 mm
09:40 AM 67.1°F19.5°C 58.6°F14.8°C 74% 11.9 mph S19.2 kmh S 19.0 mph30.6 kmh 29.47 in998.0 mb 0.00 in0.0 mm 0.00 in0.0 mm 0.00 in0.0 mm
09:30 AM 66.6°F19.2°C 59.1°F15.1°C 77% 13.6 mph SSW21.9 kmh SSW 18.3 mph29.5 kmh 29.47 in998.0 mb 0.00 in0.0 mm 0.00 in0.0 mm 0.00 in0.0 mm
09:20 AM 65.7°F18.7°C 58.3°F14.6°C 77% 12.5 mph S20.1 kmh S 15.9 mph25.6 kmh 29.46 in997.6 mb 0.00 in0.0 mm 0.00 in0.0 mm 0.00 in0.0 mm
09:10 AM 65.5°F18.6°C 58.1°F14.5°C 77% 12.6 mph S20.3 kmh S 16.8 mph27.0 kmh 29.46 in997.6 mb 0.00 in0.0 mm 0.00 in0.0 mm 0.00 in0.0 mm
09:00 AM 65.3°F18.5°C 57.2°F14.0°C 75% 11.5 mph SSW18.5 kmh SSW 17.4 mph28.0 kmh 29.46 in997.6 mb 0.00 in0.0 mm 0.00 in0.0 mm 0.00 in0.0 mm
08:50 AM 64.9°F18.3°C 56.8°F13.8°C 75% 12.9 mph SSW20.8 kmh SSW 18.3 mph29.5 kmh 29.46 in997.6 mb 0.00 in0.0 mm 0.00 in0.0 mm 0.00 in0.0 mm
08:40 AM 64.8°F18.2°C 57.4°F14.1°C 77% 12.2 mph SSW19.6 kmh SSW 17.4 mph28.0 kmh 29.47 in998.0 mb 0.00 in0.0 mm 0.00 in0.0 mm 0.00 in0.0 mm
08:30 AM 64.6°F18.1°C 57.9°F14.4°C 79% 10.6 mph SW17.1 kmh SW 18.3 mph29.5 kmh 29.46 in997.6 mb 0.00 in0.0 mm 0.00 in0.0 mm 0.00 in0.0 mm
08:20 AM 64.4°F18.0°C 58.1°F14.5°C 80% 11.4 mph S18.3 kmh S 17.4 mph28.0 kmh 29.46 in997.6 mb 0.00 in0.0 mm 0.00 in0.0 mm 0.00 in0.0 mm
08:10 AM 64.2°F17.9°C 57.9°F14.4°C 80% 10.2 mph S16.4 kmh S 14.5 mph23.3 kmh 29.46 in997.6 mb 0.00 in0.0 mm 0.00 in0.0 mm 0.00 in0.0 mm
08:00 AM 64.0°F17.8°C 57.8°F14.3°C 80% 13.8 mph S22.2 kmh S 19.7 mph31.7 kmh 29.46 in997.6 mb 0.00 in0.0 mm 0.00 in0.0 mm 0.00 in0.0 mm
07:50 AM 63.5°F17.5°C 57.6°F14.2°C 81% 12.3 mph SW19.8 kmh SW 15.9 mph25.6 kmh 29.45 in997.3 mb 0.00 in0.0 mm 0.00 in0.0 mm 0.00 in0.0 mm
07:40 AM 63.3°F17.4°C 59.1°F15.1°C 86% 10.4 mph SW16.7 kmh SW 13.6 mph21.9 kmh 29.46 in997.6 mb 0.00 in0.0 mm 0.00 in0.0 mm 0.00 in0.0 mm
07:30 AM 63.3°F17.4°C 59.1°F15.1°C 86% 9.2 mph SW14.8 kmh SW 15.2 mph24.5 kmh 29.47 in998.0 mb 0.00 in0.0 mm 0.00 in0.0 mm 0.00 in0.0 mm
07:20 AM 63.1°F17.3°C 59.5°F15.3°C 88% 10.1 mph WSW16.3 kmh WSW 22.1 mph35.6 kmh 29.46 in997.6 mb 0.00 in0.0 mm 0.00 in0.0 mm 0.00 in0.0 mm
07:10 AM 63.0°F17.2°C 60.0°F15.6°C 90% 11.1 mph SSW17.9 kmh SSW 22.1 mph35.6 kmh 29.46 in997.6 mb 0.00 in0.0 mm 0.00 in0.0 mm 0.00 in0.0 mm
07:00 AM 62.8°F17.1°C 60.1°F15.6°C 91% 12.4 mph SW20.0 kmh SW 16.8 mph27.0 kmh 29.45 in997.3 mb 0.00 in0.0 mm 0.00 in0.0 mm 0.00 in0.0 mm
06:50 AM 62.6°F17.0°C 60.0°F15.6°C 91% 9.6 mph SW15.4 kmh SW 12.1 mph19.5 kmh 29.45 in997.3 mb 0.00 in0.0 mm 0.00 in0.0 mm 0.00 in0.0 mm
06:40 AM 62.2°F16.8°C 59.6°F15.3°C 91% 11.3 mph SW18.2 kmh SW 14.5 mph23.3 kmh 29.45 in997.3 mb 0.00 in0.0 mm 0.00 in0.0 mm 0.00 in0.0 mm
06:30 AM 62.2°F16.8°C 59.6°F15.3°C 91% 9.9 mph SSW15.9 kmh SSW 13.6 mph21.9 kmh 29.45 in997.3 mb 0.00 in0.0 mm 0.00 in0.0 mm 0.00 in0.0 mm
06:20 AM 62.2°F16.8°C 59.3°F15.2°C 90% 10.2 mph SW16.4 kmh SW 16.8 mph27.0 kmh 29.45 in997.3 mb 0.00 in0.0 mm 0.00 in0.0 mm 0.00 in0.0 mm
06:10 AM 62.2°F16.8°C 59.3°F15.2°C 90% 10.7 mph SW17.2 kmh SW 16.8 mph27.0 kmh 29.44 in997.0 mb 0.00 in0.0 mm 0.00 in0.0 mm 0.00 in0.0 mm
06:00 AM 62.1°F16.7°C 58.8°F14.9°C 89% 12.9 mph SW20.8 kmh SW 16.8 mph27.0 kmh 29.44 in997.0 mb 0.00 in0.0 mm 0.00 in0.0 mm 0.00 in0.0 mm
05:50 AM 62.2°F16.8°C 60.2°F15.7°C 93% 6.9 mph W11.1 kmh W 6.9 mph11.1 kmh 29.45 in997.3 mb 0.00 in0.0 mm 0.00 in0.0 mm 0.00 in0.0 mm
05:40 AM 62.2°F16.8°C 60.2°F15.7°C 93% 6.9 mph W11.1 kmh W 6.9 mph11.1 kmh 29.45 in997.3 mb 0.00 in0.0 mm 0.00 in0.0 mm 0.00 in0.0 mm
05:30 AM 62.2°F16.8°C 60.2°F15.7°C 93% 6.9 mph W11.1 kmh W 6.9 mph11.1 kmh 29.45 in997.3 mb 0.00 in0.0 mm 0.00 in0.0 mm 0.00 in0.0 mm
05:20 AM 62.2°F16.8°C 60.2°F15.7°C 93% 6.9 mph W11.1 kmh W 6.9 mph11.1 kmh 29.44 in997.0 mb 0.00 in0.0 mm 0.00 in0.0 mm 0.00 in0.0 mm
05:10 AM 62.2°F16.8°C 60.2°F15.7°C 93% 6.9 mph W11.1 kmh W 6.9 mph11.1 kmh 29.44 in997.0 mb 0.00 in0.0 mm 0.00 in0.0 mm 0.00 in0.0 mm
05:00 AM 62.2°F16.8°C 60.2°F15.7°C 93% 6.9 mph W11.1 kmh W 6.9 mph11.1 kmh 29.44 in997.0 mb 0.00 in0.0 mm 0.00 in0.0 mm 0.00 in0.0 mm
04:50 AM 62.2°F16.8°C 60.2°F15.7°C 93% 6.9 mph W11.1 kmh W 6.9 mph11.1 kmh 29.45 in997.3 mb 0.00 in0.0 mm 0.00 in0.0 mm 0.00 in0.0 mm
04:40 AM 62.2°F16.8°C 60.2°F15.7°C 93% 6.9 mph W11.1 kmh W 6.9 mph11.1 kmh 29.45 in997.3 mb 0.00 in0.0 mm 0.00 in0.0 mm 0.00 in0.0 mm
04:30 AM 62.2°F16.8°C 60.2°F15.7°C 93% 6.9 mph W11.1 kmh W 6.9 mph11.1 kmh 29.45 in997.3 mb 0.00 in0.0 mm 0.00 in0.0 mm 0.00 in0.0 mm
04:20 AM 62.2°F16.8°C 60.2°F15.7°C 93% 6.9 mph W11.1 kmh W 6.9 mph11.1 kmh 29.45 in997.3 mb 0.00 in0.0 mm 0.00 in0.0 mm 0.00 in0.0 mm
04:10 AM 62.2°F16.8°C 60.2°F15.7°C 93% 6.9 mph W11.1 kmh W 6.9 mph11.1 kmh 29.45 in997.3 mb 0.00 in0.0 mm 0.00 in0.0 mm 0.00 in0.0 mm
04:00 AM 62.2°F16.8°C 60.2°F15.7°C 93% 6.9 mph W11.1 kmh W 6.9 mph11.1 kmh 29.45 in997.3 mb 0.00 in0.0 mm 0.00 in0.0 mm 0.00 in0.0 mm
03:50 AM 62.2°F16.8°C 60.2°F15.7°C 93% 6.9 mph W11.1 kmh W 6.9 mph11.1 kmh 29.45 in997.3 mb 0.00 in0.0 mm 0.00 in0.0 mm 0.00 in0.0 mm
03:40 AM 62.2°F16.8°C 60.2°F15.7°C 93% 6.9 mph W11.1 kmh W 6.9 mph11.1 kmh 29.45 in997.3 mb 0.00 in0.0 mm 0.00 in0.0 mm 0.00 in0.0 mm
03:30 AM 62.2°F16.8°C 60.2°F15.7°C 93% 6.9 mph W11.1 kmh W 6.9 mph11.1 kmh 29.46 in997.6 mb 0.00 in0.0 mm 0.00 in0.0 mm 0.00 in0.0 mm
03:20 AM 62.2°F16.8°C 60.2°F15.7°C 93% 6.9 mph W11.1 kmh W 6.9 mph11.1 kmh 29.45 in997.3 mb 0.00 in0.0 mm 0.00 in0.0 mm 0.00 in0.0 mm
03:10 AM 62.2°F16.8°C 60.2°F15.7°C 93% 6.9 mph W11.1 kmh W 6.9 mph11.1 kmh 29.46 in997.6 mb 0.00 in0.0 mm 0.00 in0.0 mm 0.00 in0.0 mm
03:00 AM 62.2°F16.8°C 60.2°F15.7°C 93% 6.9 mph W11.1 kmh W 6.9 mph11.1 kmh 29.46 in997.6 mb 0.00 in0.0 mm 0.00 in0.0 mm 0.00 in0.0 mm
02:50 AM 62.2°F16.8°C 60.2°F15.7°C 93% 6.9 mph W11.1 kmh W 6.9 mph11.1 kmh 29.46 in997.6 mb 0.00 in0.0 mm 0.00 in0.0 mm 0.00 in0.0 mm
02:40 AM 62.2°F16.8°C 60.2°F15.7°C 93% 6.9 mph W11.1 kmh W 6.9 mph11.1 kmh 29.46 in997.6 mb 0.00 in0.0 mm 0.00 in0.0 mm 0.00 in0.0 mm
02:30 AM 62.2°F16.8°C 60.2°F15.7°C 93% 6.9 mph W11.1 kmh W 6.9 mph11.1 kmh 29.45 in997.3 mb 0.00 in0.0 mm 0.00 in0.0 mm 0.00 in0.0 mm
02:20 AM 62.2°F16.8°C 60.2°F15.7°C 93% 6.9 mph W11.1 kmh W 6.9 mph11.1 kmh 29.46 in997.6 mb 0.00 in0.0 mm 0.00 in0.0 mm 0.00 in0.0 mm
02:10 AM 62.2°F16.8°C 60.2°F15.7°C 93% 6.9 mph W11.1 kmh W 6.9 mph11.1 kmh 29.46 in997.6 mb 0.00 in0.0 mm 0.00 in0.0 mm 0.00 in0.0 mm
02:00 AM 62.2°F16.8°C 60.2°F15.7°C 93% 6.9 mph W11.1 kmh W 6.9 mph11.1 kmh 29.46 in997.6 mb 0.00 in0.0 mm 0.00 in0.0 mm 0.00 in0.0 mm
01:50 AM 62.2°F16.8°C 60.2°F15.7°C 93% 6.9 mph W11.1 kmh W 6.9 mph11.1 kmh 29.47 in998.0 mb 0.00 in0.0 mm 0.00 in0.0 mm 0.00 in0.0 mm
01:40 AM 62.2°F16.8°C 60.2°F15.7°C 93% 6.9 mph W11.1 kmh W 6.9 mph11.1 kmh 29.46 in997.6 mb 0.00 in0.0 mm 0.00 in0.0 mm 0.00 in0.0 mm
01:30 AM 62.2°F16.8°C 60.2°F15.7°C 93% 6.9 mph W11.1 kmh W 6.9 mph11.1 kmh 29.46 in997.6 mb 0.00 in0.0 mm 0.00 in0.0 mm 0.00 in0.0 mm
01:20 AM 62.2°F16.8°C 60.2°F15.7°C 93% 6.9 mph W11.1 kmh W 6.9 mph11.1 kmh 29.47 in998.0 mb 0.00 in0.0 mm 0.00 in0.0 mm 0.00 in0.0 mm
01:10 AM 62.2°F16.8°C 60.2°F15.7°C 93% 6.9 mph W11.1 kmh W 6.9 mph11.1 kmh 29.47 in998.0 mb 0.00 in0.0 mm 0.00 in0.0 mm 0.00 in0.0 mm
01:00 AM 62.2°F16.8°C 60.2°F15.7°C 93% 6.9 mph W11.1 kmh W 6.9 mph11.1 kmh 29.48 in998.3 mb 0.00 in0.0 mm 0.00 in0.0 mm 0.00 in0.0 mm
12:50 AM 62.2°F16.8°C 60.2°F15.7°C 93% 6.9 mph W11.1 kmh W 6.9 mph11.1 kmh 29.47 in998.0 mb 0.00 in0.0 mm 0.00 in0.0 mm 0.00 in0.0 mm
12:40 AM 62.2°F16.8°C 60.2°F15.7°C 93% 6.9 mph W11.1 kmh W 6.9 mph11.1 kmh 29.48 in998.3 mb 0.00 in0.0 mm 0.00 in0.0 mm 0.00 in0.0 mm
12:30 AM 62.2°F16.8°C 60.2°F15.7°C 93% 6.9 mph W11.1 kmh W 6.9 mph11.1 kmh 29.48 in998.3 mb 0.00 in0.0 mm 0.00 in0.0 mm 0.00 in0.0 mm
12:20 AM 62.2°F16.8°C 60.2°F15.7°C 93% 6.9 mph W11.1 kmh W 6.9 mph11.1 kmh 29.47 in998.0 mb 0.00 in0.0 mm 0.00 in0.0 mm 0.00 in0.0 mm
12:10 AM 62.2°F16.8°C 60.2°F15.7°C 93% 6.9 mph W11.1 kmh W 6.9 mph11.1 kmh 29.47 in998.0 mb 0.00 in0.0 mm 0.00 in0.0 mm 0.00 in0.0 mm
12:00 AM 62.2°F16.8°C 60.2°F15.7°C 93% 8.2 mph SW13.2 kmh SW 10.7 mph17.2 kmh 29.47 in998.0 mb 0.00 in0.0 mm 0.00 in0.0 mm 0.00 in0.0 mm